createdAt,value
2019-05-11T00:00:30.220Z,36.87
2019-05-11T00:02:59.688Z,34.50
2019-05-11T00:05:29.185Z,36.17
2019-05-11T00:07:58.655Z,35.40
2019-05-11T00:10:28.085Z,34.20
2019-05-11T00:12:57.540Z,33.18
2019-05-11T00:15:27.056Z,34.53
2019-05-11T00:17:56.512Z,34.78
2019-05-11T00:20:25.969Z,34.60
2019-05-11T00:22:55.574Z,34.83
2019-05-11T00:25:25.002Z,36.13
2019-05-11T00:27:54.439Z,36.05
2019-05-11T00:30:23.891Z,36.40
2019-05-11T00:32:53.544Z,37.25
2019-05-11T00:35:22.997Z,37.73
2019-05-11T00:37:52.396Z,38.67
2019-05-11T00:40:22.001Z,39.08
2019-05-11T00:42:51.439Z,36.23
2019-05-11T00:45:20.903Z,35.43
2019-05-11T00:47:50.360Z,37.37
2019-05-11T00:50:19.804Z,37.30
2019-05-11T00:52:49.321Z,35.70
2019-05-11T00:55:18.768Z,36.68
2019-05-11T00:57:48.250Z,37.60
2019-05-11T01:00:18.257Z,36.20
2019-05-11T01:02:47.733Z,37.55
2019-05-11T01:05:17.692Z,39.33
2019-05-11T01:07:47.045Z,39.90
2019-05-11T01:10:25.626Z,40.17
2019-05-11T01:12:47.906Z,38.57
2019-05-11T01:15:18.650Z,39.25
2019-05-11T01:17:48.153Z,39.18
2019-05-11T01:20:18.778Z,37.15
2019-05-11T01:22:48.219Z,37.93
2019-05-11T01:25:18.015Z,38.33
2019-05-11T01:27:47.427Z,39.75
2019-05-11T01:30:17.263Z,41.25
2019-05-11T01:32:46.753Z,38.85
2019-05-11T01:35:16.217Z,37.70
2019-05-11T01:37:45.647Z,37.50
2019-05-11T01:40:15.272Z,36.33
2019-05-11T01:42:44.728Z,36.85
2019-05-11T01:45:14.240Z,37.20
2019-05-11T01:47:43.834Z,35.60
2019-05-11T01:50:13.234Z,38.63
2019-05-11T01:52:42.755Z,40.50
2019-05-11T01:55:12.560Z,39.58
2019-05-11T01:57:42.017Z,40.30
2019-05-11T02:00:11.892Z,39.18
2019-05-11T02:02:41.377Z,41.63
2019-05-11T02:05:29.826Z,42.10
2019-05-11T02:08:01.141Z,40.10
2019-05-11T02:10:31.298Z,38.67
2019-05-11T02:13:00.778Z,37.67
2019-05-11T02:15:30.198Z,39.23
2019-05-11T02:17:59.866Z,38.53
2019-05-11T02:20:29.296Z,37.73
2019-05-11T02:22:58.731Z,38.02
2019-05-11T02:25:28.494Z,38.80
2019-05-11T02:27:57.884Z,37.90
2019-05-11T02:30:27.364Z,39.40
2019-05-11T02:32:57.088Z,39.35
2019-05-11T02:35:26.545Z,39.60
2019-05-11T02:37:55.987Z,39.25
2019-05-11T02:40:26.112Z,38.85
2019-05-11T02:42:55.532Z,38.53
2019-05-11T02:45:39.865Z,37.40
2019-05-11T02:48:10.197Z,36.60
2019-05-11T02:50:39.757Z,37.95
2019-05-11T02:53:10.153Z,38.05
2019-05-11T02:55:40.148Z,36.00
2019-05-11T02:58:09.976Z,38.80
2019-05-11T03:00:44.751Z,37.98
2019-05-11T03:03:14.319Z,37.65
2019-05-11T03:05:43.780Z,36.20
2019-05-11T03:08:13.387Z,35.75
2019-05-11T03:10:42.818Z,36.42
2019-05-11T03:13:12.252Z,36.10
2019-05-11T03:15:41.710Z,36.17
2019-05-11T03:18:11.859Z,34.85
2019-05-11T03:20:41.656Z,32.40
2019-05-11T03:23:11.064Z,34.00
2019-05-11T03:25:40.578Z,35.40
2019-05-11T03:28:10.395Z,32.60
2019-05-11T03:30:39.835Z,32.03
2019-05-11T03:33:09.297Z,27.93
2019-05-11T03:35:38.913Z,27.25
2019-05-11T03:38:08.404Z,27.20
2019-05-11T03:40:37.796Z,26.53
2019-05-11T03:43:07.844Z,24.45
2019-05-11T03:45:37.864Z,24.30
2019-05-11T03:48:07.341Z,23.30
2019-05-11T03:50:37.163Z,20.65
2019-05-11T03:53:06.628Z,22.60
2019-05-11T03:55:36.109Z,21.90
2019-05-11T03:58:06.181Z,21.77
2019-05-11T04:00:35.994Z,21.12
2019-05-11T04:03:05.483Z,21.50
2019-05-11T04:05:34.859Z,21.68
2019-05-11T04:08:04.600Z,21.27
2019-05-11T04:10:34.050Z,20.97
2019-05-11T04:13:03.504Z,21.85
2019-05-11T04:15:33.377Z,20.70
2019-05-11T04:18:02.843Z,20.70
2019-05-11T04:20:32.276Z,20.05
2019-05-11T04:23:01.917Z,21.05
2019-05-11T04:25:31.384Z,19.77
2019-05-11T04:28:00.926Z,19.42
2019-05-11T04:30:30.521Z,19.27
2019-05-11T04:32:59.984Z,20.52
2019-05-11T04:35:29.472Z,19.50
2019-05-11T04:37:59.235Z,18.92
2019-05-11T04:40:28.811Z,19.32
2019-05-11T04:42:58.386Z,19.17
2019-05-11T04:45:27.885Z,18.30
2019-05-11T04:47:57.392Z,17.95
2019-05-11T04:50:26.925Z,17.02
2019-05-11T04:52:56.501Z,19.40
2019-05-11T04:55:25.983Z,18.45
2019-05-11T04:57:55.448Z,18.42
2019-05-11T05:00:25.196Z,14.47
2019-05-11T05:02:54.770Z,18.13
2019-05-11T05:05:24.477Z,18.05
2019-05-11T05:08:07.443Z,18.55
2019-05-11T05:10:25.081Z,18.10
2019-05-11T05:13:08.526Z,18.70
2019-05-11T05:15:25.835Z,17.95
2019-05-11T05:17:55.489Z,17.98
2019-05-11T05:20:24.934Z,18.85
2019-05-11T05:22:54.386Z,18.57
2019-05-11T05:25:24.196Z,18.17
2019-05-11T05:27:53.611Z,17.17
2019-05-11T05:30:22.986Z,18.23
2019-05-11T05:32:52.820Z,17.07
2019-05-11T05:35:22.268Z,16.97
2019-05-11T05:37:51.686Z,16.85
2019-05-11T05:40:21.332Z,16.93
2019-05-11T05:42:50.771Z,15.03
2019-05-11T05:45:20.241Z,15.60
2019-05-11T05:47:50.214Z,16.67
2019-05-11T05:50:19.662Z,16.52
2019-05-11T05:52:49.545Z,16.02
2019-05-11T05:55:19.128Z,16.32
2019-05-11T05:57:48.799Z,15.30
2019-05-11T06:00:19.146Z,15.05
2019-05-11T06:02:48.632Z,14.45
2019-05-11T06:05:18.314Z,15.60
2019-05-11T06:07:47.676Z,14.40
2019-05-11T06:10:18.067Z,13.48
2019-05-11T06:12:47.519Z,13.37
2019-05-11T06:15:17.282Z,15.05
2019-05-11T06:17:46.734Z,14.47
2019-05-11T06:20:17.633Z,14.68
2019-05-11T06:22:47.104Z,14.95
2019-05-11T06:25:16.616Z,15.15
2019-05-11T06:27:46.563Z,16.23
2019-05-11T06:30:16.419Z,15.43
2019-05-11T06:32:45.950Z,17.63
2019-05-11T06:35:16.988Z,18.25
2019-05-11T06:37:46.484Z,19.67
2019-05-11T06:40:16.145Z,19.43
2019-05-11T06:42:45.758Z,19.48
2019-05-11T06:45:15.276Z,19.40
2019-05-11T06:47:44.954Z,17.77
2019-05-11T06:50:14.594Z,18.62
2019-05-11T06:52:44.418Z,21.55
2019-05-11T06:55:14.047Z,19.62
2019-05-11T06:57:43.462Z,20.95
2019-05-11T07:00:13.469Z,19.40
2019-05-11T07:02:43.786Z,19.35
2019-05-11T07:05:13.462Z,19.05
2019-05-11T07:07:47.523Z,18.55
2019-05-11T07:10:14.764Z,17.23
2019-05-11T07:12:44.302Z,17.62
2019-05-11T07:15:13.770Z,15.75
2019-05-11T07:17:43.498Z,15.55
2019-05-11T07:20:13.112Z,15.72
2019-05-11T07:22:42.979Z,14.55
2019-05-11T07:25:12.576Z,13.15
2019-05-11T07:27:42.784Z,12.90
2019-05-11T07:30:12.801Z,12.20
2019-05-11T07:32:42.758Z,10.97
2019-05-11T07:35:12.202Z,9.63
2019-05-11T07:37:41.686Z,9.30
2019-05-11T07:40:11.264Z,8.38
2019-05-11T07:42:40.704Z,7.97
2019-05-11T07:45:10.348Z,8.53
2019-05-11T07:47:39.948Z,8.55
2019-05-11T07:50:09.717Z,7.87
2019-05-11T07:52:39.388Z,8.95
2019-05-11T07:55:09.719Z,8.40
2019-05-11T07:57:39.431Z,8.55
2019-05-11T08:00:09.835Z,13.48
2019-05-11T08:02:39.296Z,9.43
2019-05-11T08:05:09.053Z,9.35
2019-05-11T08:07:38.581Z,9.25
2019-05-11T08:10:08.627Z,10.10
2019-05-11T08:12:39.053Z,9.93
2019-05-11T08:15:13.264Z,10.05
2019-05-11T08:17:40.800Z,10.60
2019-05-11T08:20:10.503Z,11.18
2019-05-11T08:22:39.965Z,11.80
2019-05-11T08:25:09.501Z,12.20
2019-05-11T08:27:39.325Z,12.13
2019-05-11T08:30:11.333Z,12.33
2019-05-11T08:32:40.837Z,12.05
2019-05-11T08:35:10.907Z,13.20
2019-05-11T08:37:40.389Z,12.55
2019-05-11T08:40:10.983Z,12.47
2019-05-11T08:42:40.448Z,12.58
2019-05-11T08:45:20.183Z,12.20
2019-05-11T08:47:41.570Z,12.33
2019-05-11T08:50:11.142Z,15.93
2019-05-11T08:52:40.635Z,9.05
2019-05-11T08:55:10.434Z,7.50
2019-05-11T08:57:39.890Z,8.20
2019-05-11T09:00:13.776Z,7.40
2019-05-11T09:02:46.600Z,7.70
2019-05-11T09:05:15.434Z,7.53
2019-05-11T09:07:44.881Z,7.03
2019-05-11T09:10:14.521Z,6.60
2019-05-11T09:12:44.116Z,6.00
2019-05-11T09:15:28.074Z,5.77
2019-05-11T09:17:44.913Z,5.65
2019-05-11T09:20:14.572Z,6.25
2019-05-11T09:22:44.017Z,7.25
2019-05-11T09:25:15.138Z,5.75
2019-05-11T09:27:44.811Z,6.58
2019-05-11T09:30:18.189Z,6.53
2019-05-11T09:32:47.901Z,5.62
2019-05-11T09:35:18.965Z,6.62
2019-05-11T09:37:48.843Z,6.75
2019-05-11T09:40:18.770Z,5.87
2019-05-11T09:42:48.408Z,6.35
2019-05-11T09:45:18.868Z,6.17
2019-05-11T09:47:48.440Z,6.25
2019-05-11T09:50:18.610Z,6.00
2019-05-11T09:52:49.008Z,5.97
2019-05-11T09:55:19.318Z,7.30
2019-05-11T09:57:50.673Z,7.97
2019-05-11T10:00:20.638Z,8.38
2019-05-11T10:02:50.396Z,7.80
2019-05-11T10:05:19.828Z,11.93
2019-05-11T10:07:49.323Z,10.93
2019-05-11T10:10:19.109Z,7.40
2019-05-11T10:12:52.530Z,7.20
2019-05-11T10:15:20.925Z,7.12
2019-05-11T10:17:50.470Z,6.47
2019-05-11T10:20:19.923Z,6.55
2019-05-11T10:22:49.585Z,6.85
2019-05-11T10:25:19.209Z,6.37
2019-05-11T10:27:49.210Z,7.77
2019-05-11T10:30:20.092Z,7.30
2019-05-11T10:32:49.826Z,7.90
2019-05-11T10:35:19.336Z,7.85
2019-05-11T10:37:48.907Z,9.50
2019-05-11T10:40:19.214Z,10.98
2019-05-11T10:42:48.864Z,11.28
2019-05-11T10:45:18.409Z,13.95
2019-05-11T10:47:49.006Z,16.32
2019-05-11T10:50:18.841Z,16.42
2019-05-11T10:52:48.791Z,17.13
2019-05-11T10:55:19.389Z,17.00
2019-05-11T10:57:49.294Z,17.60
2019-05-11T11:00:19.596Z,17.48
2019-05-11T11:02:49.150Z,16.47
2019-05-11T11:05:18.916Z,17.05
2019-05-11T11:07:48.715Z,16.75
2019-05-11T11:10:18.749Z,14.95
2019-05-11T11:12:48.951Z,14.58
2019-05-11T11:15:19.419Z,17.55
2019-05-11T11:17:48.875Z,14.07
2019-05-11T11:20:18.908Z,18.15
2019-05-11T11:22:49.029Z,18.25
2019-05-11T11:25:18.671Z,18.63
2019-05-11T11:27:48.829Z,17.73
2019-05-11T11:30:18.776Z,17.23
2019-05-11T11:32:48.435Z,16.23
2019-05-11T11:35:18.740Z,16.65
2019-05-11T11:37:48.433Z,14.98
2019-05-11T11:40:18.028Z,14.90
2019-05-11T11:42:48.022Z,15.40
2019-05-11T11:45:18.374Z,14.18
2019-05-11T11:47:49.329Z,14.70
2019-05-11T11:50:19.333Z,14.55
2019-05-11T11:52:48.825Z,13.20
2019-05-11T11:55:18.843Z,12.33
2019-05-11T11:57:50.485Z,10.20
2019-05-11T12:00:20.082Z,11.12
2019-05-11T12:02:49.558Z,10.90
2019-05-11T12:05:19.406Z,10.15
2019-05-11T12:07:49.189Z,10.57
2019-05-11T12:10:18.921Z,9.95
2019-05-11T12:12:48.333Z,9.50
2019-05-11T12:15:18.163Z,8.93
2019-05-11T12:17:48.268Z,8.78
2019-05-11T12:20:18.254Z,8.55
2019-05-11T12:22:47.899Z,8.48
2019-05-11T12:25:18.522Z,7.58
2019-05-11T12:27:49.086Z,7.10
2019-05-11T12:30:19.444Z,7.20
2019-05-11T12:32:49.927Z,6.60
2019-05-11T12:35:19.911Z,7.97
2019-05-11T12:37:49.330Z,7.65
2019-05-11T12:40:19.380Z,7.40
2019-05-11T12:42:49.193Z,7.60
2019-05-11T12:45:18.914Z,7.50
2019-05-11T12:47:48.954Z,7.47
2019-05-11T12:50:18.820Z,6.40
2019-05-11T12:52:48.390Z,6.47
2019-05-11T12:55:19.523Z,6.97
2019-05-11T12:57:49.053Z,7.62
2019-05-11T13:00:19.242Z,11.25
2019-05-11T13:02:48.990Z,7.78
2019-05-11T13:05:18.469Z,7.13
2019-05-11T13:07:48.389Z,8.03
2019-05-11T13:10:18.904Z,7.08
2019-05-11T13:12:49.244Z,7.78
2019-05-11T13:15:19.241Z,6.97
2019-05-11T13:17:49.281Z,6.95
2019-05-11T13:20:18.805Z,6.83
2019-05-11T13:22:49.049Z,5.67
2019-05-11T13:25:18.819Z,5.83
2019-05-11T13:27:49.140Z,6.83
2019-05-11T13:30:19.286Z,5.70
2019-05-11T13:32:49.206Z,5.87
2019-05-11T13:35:18.735Z,6.90
2019-05-11T13:37:48.208Z,7.97
2019-05-11T13:40:18.651Z,6.25
2019-05-11T13:42:48.917Z,6.33
2019-05-11T13:45:18.963Z,5.60
2019-05-11T13:47:54.747Z,5.95
2019-05-11T13:50:20.007Z,5.70
2019-05-11T13:52:49.517Z,5.45
2019-05-11T13:55:19.191Z,5.25
2019-05-11T13:57:48.821Z,6.10
2019-05-11T14:00:19.341Z,4.90
2019-05-11T14:02:49.265Z,5.92
2019-05-11T14:05:19.076Z,4.50
2019-05-11T14:07:48.573Z,5.28
2019-05-11T14:10:18.302Z,5.67
2019-05-11T14:12:48.028Z,5.42
2019-05-11T14:15:18.791Z,6.17
2019-05-11T14:18:04.459Z,5.97
2019-05-11T14:20:21.025Z,4.80
2019-05-11T14:22:50.611Z,5.00
2019-05-11T14:25:20.043Z,5.10
2019-05-11T14:27:49.685Z,5.90
2019-05-11T14:30:19.533Z,5.42
2019-05-11T14:32:49.417Z,5.63
2019-05-11T14:35:19.124Z,5.10
2019-05-11T14:37:48.940Z,6.83
2019-05-11T14:40:18.843Z,5.50
2019-05-11T14:42:49.005Z,7.55
2019-05-11T14:45:18.896Z,6.95
2019-05-11T14:51:00.569Z,5.93
2019-05-11T14:53:30.054Z,5.65
2019-05-11T14:55:59.520Z,5.80
2019-05-11T14:58:29.334Z,5.55
2019-05-11T15:00:58.805Z,5.62
2019-05-11T15:03:28.857Z,20.32
2019-05-11T15:05:58.402Z,5.10
2019-05-11T15:08:28.641Z,5.92
2019-05-11T15:10:58.420Z,5.53
2019-05-11T15:13:28.831Z,5.17
2019-05-11T15:15:58.796Z,8.75
2019-05-11T15:18:37.911Z,6.47
2019-05-11T15:20:59.293Z,5.37
2019-05-11T15:23:28.748Z,5.00
2019-05-11T15:25:58.787Z,5.50
2019-05-11T15:28:28.649Z,5.03
2019-05-11T15:30:58.782Z,4.90
2019-05-11T15:33:28.415Z,5.53
2019-05-11T15:35:58.444Z,5.17
2019-05-11T15:38:28.405Z,4.60
2019-05-11T15:40:58.073Z,4.58
2019-05-11T15:43:28.180Z,5.10
2019-05-11T15:45:58.143Z,5.20
2019-05-11T15:48:27.631Z,5.60
2019-05-11T15:50:57.851Z,4.95
2019-05-11T15:53:27.658Z,5.70
2019-05-11T15:55:59.561Z,5.40
2019-05-11T15:58:29.081Z,4.37
2019-05-11T16:00:59.677Z,4.87
2019-05-11T16:03:29.485Z,4.33
2019-05-11T16:05:58.983Z,4.30
2019-05-11T16:08:28.484Z,5.10
2019-05-11T16:10:58.139Z,4.97
2019-05-11T16:13:28.462Z,5.03
2019-05-11T16:15:58.375Z,5.37
2019-05-11T16:18:27.829Z,5.80
2019-05-11T16:20:58.300Z,5.12
2019-05-11T16:23:28.493Z,5.00
2019-05-11T16:25:58.264Z,4.70
2019-05-11T16:28:30.583Z,5.17
2019-05-11T16:30:58.843Z,5.10
2019-05-11T16:33:28.282Z,5.03
2019-05-11T16:36:00.776Z,5.35
2019-05-11T16:38:29.199Z,4.70
2019-05-11T16:40:58.886Z,4.60
2019-05-11T16:43:28.352Z,4.50
2019-05-11T16:45:58.011Z,4.70
2019-05-11T16:48:27.806Z,4.50
2019-05-11T16:50:57.973Z,4.22
2019-05-11T16:53:28.456Z,4.72
2019-05-11T16:55:58.498Z,4.50
2019-05-11T16:58:28.226Z,4.03
2019-05-11T17:00:58.374Z,4.20
2019-05-11T17:03:28.286Z,4.08
2019-05-11T17:05:58.850Z,4.13
2019-05-11T17:08:28.877Z,3.90
2019-05-11T17:10:59.415Z,4.10
2019-05-11T17:13:29.063Z,8.33
2019-05-11T17:15:58.539Z,5.25
2019-05-11T17:18:28.696Z,4.70
2019-05-11T17:20:58.859Z,5.08
2019-05-11T17:23:30.933Z,5.10
2019-05-11T17:25:59.518Z,5.05
2019-05-11T17:28:29.299Z,4.67
2019-05-11T17:31:02.492Z,4.78
2019-05-11T17:33:30.110Z,12.37
2019-05-11T17:35:59.740Z,25.97
2019-05-11T17:38:29.182Z,4.35
2019-05-11T17:40:58.686Z,4.80
2019-05-11T17:43:28.248Z,4.33
2019-05-11T17:45:58.481Z,4.10
2019-05-11T17:48:28.401Z,4.35
2019-05-11T17:50:58.240Z,3.92
2019-05-11T17:53:28.621Z,4.15
2019-05-11T17:55:58.486Z,4.50
2019-05-11T17:58:28.021Z,4.80
2019-05-11T18:00:58.792Z,4.40
2019-05-11T18:03:28.584Z,4.73
2019-05-11T18:05:59.081Z,4.72
2019-05-11T18:08:30.845Z,4.50
2019-05-11T18:10:59.864Z,4.28
2019-05-11T18:13:29.271Z,5.33
2019-05-11T18:15:58.945Z,5.00
2019-05-11T18:18:29.204Z,10.33
2019-05-11T18:20:59.075Z,16.93
2019-05-11T18:23:29.067Z,24.52
2019-05-11T18:25:58.526Z,17.75
2019-05-11T18:28:29.116Z,15.60
2019-05-11T18:30:58.773Z,13.83
2019-05-11T18:33:28.260Z,44.15
2019-05-11T18:35:58.524Z,15.38
2019-05-11T18:38:28.221Z,7.10
2019-05-11T18:40:58.142Z,6.47
2019-05-11T18:43:28.200Z,6.35
2019-05-11T18:45:58.312Z,5.97
2019-05-11T18:48:28.981Z,5.28
2019-05-11T18:50:59.617Z,5.03
2019-05-11T18:53:29.843Z,6.08
2019-05-11T18:55:59.349Z,6.50
2019-05-11T18:58:28.796Z,5.95
2019-05-11T19:00:58.405Z,54.10
2019-05-11T19:03:28.216Z,12.10
2019-05-11T19:05:58.237Z,7.40
2019-05-11T19:08:28.114Z,6.40
2019-05-11T19:10:58.074Z,6.70
2019-05-11T19:13:28.399Z,6.22
2019-05-11T19:15:58.473Z,6.55
2019-05-11T19:18:28.339Z,6.95
2019-05-11T19:20:58.736Z,7.05
2019-05-11T19:23:30.262Z,7.27
2019-05-11T19:25:59.737Z,7.55
2019-05-11T19:28:29.177Z,8.73
2019-05-11T19:30:59.434Z,9.98
2019-05-11T19:33:28.870Z,9.30
2019-05-11T19:35:58.832Z,86.53
2019-05-11T19:38:28.527Z,31.90
2019-05-11T19:40:58.797Z,10.88
2019-05-11T19:43:28.503Z,10.87
2019-05-11T19:45:58.361Z,10.48
2019-05-11T19:48:28.193Z,12.82
2019-05-11T19:51:06.627Z,13.40
2019-05-11T19:53:29.472Z,12.37
2019-05-11T19:55:59.104Z,13.35
2019-05-11T19:58:29.077Z,14.57
2019-05-11T20:00:58.636Z,14.23
2019-05-11T20:03:28.669Z,16.05
2019-05-11T20:05:58.266Z,13.30
2019-05-11T20:08:29.118Z,14.03
2019-05-11T20:10:58.746Z,13.65
2019-05-11T20:13:28.567Z,16.77
2019-05-11T20:15:58.152Z,17.30
2019-05-11T20:18:28.861Z,17.92
2019-05-11T20:20:58.474Z,18.83
2019-05-11T20:23:27.879Z,18.98
2019-05-11T20:25:58.222Z,18.20
2019-05-11T20:28:28.530Z,17.80
2019-05-11T20:30:58.903Z,17.32
2019-05-11T20:33:28.487Z,18.25
2019-05-11T20:35:58.243Z,19.37
2019-05-11T20:38:28.167Z,20.52
2019-05-11T20:40:58.046Z,23.62
2019-05-11T20:43:27.892Z,32.23
2019-05-11T20:45:57.725Z,33.16
2019-05-11T20:48:27.871Z,28.07
2019-05-11T20:50:57.950Z,24.72
2019-05-11T20:53:28.715Z,21.97
2019-05-11T20:55:58.448Z,21.73
2019-05-11T20:58:28.939Z,21.52
2019-05-11T21:00:58.689Z,20.65
2019-05-11T21:03:28.135Z,20.77
2019-05-11T21:05:58.607Z,22.15
2019-05-11T21:08:28.418Z,21.25
2019-05-11T21:10:58.312Z,22.32
2019-05-11T21:13:28.212Z,21.95
2019-05-11T21:15:59.243Z,22.50
2019-05-11T21:18:28.904Z,23.65
2019-05-11T21:20:58.358Z,21.50
2019-05-11T21:23:29.009Z,66.87
2019-05-11T21:25:58.614Z,25.85
2019-05-11T21:28:30.343Z,21.82
2019-05-11T21:30:59.149Z,21.85
2019-05-11T21:33:28.598Z,22.75
2019-05-11T21:36:00.756Z,22.30
2019-05-11T21:38:31.722Z,23.10
2019-05-11T21:41:00.641Z,24.05
2019-05-11T21:43:30.071Z,23.00
2019-05-11T21:46:01.303Z,24.47
2019-05-11T21:48:30.627Z,52.60
2019-05-11T21:51:00.275Z,60.78
2019-05-11T21:53:29.765Z,51.23
2019-05-11T21:55:59.260Z,51.20
2019-05-11T21:58:28.956Z,56.17
2019-05-11T22:00:58.537Z,60.35
2019-05-11T22:03:28.253Z,52.27
2019-05-11T22:05:57.955Z,48.20
2019-05-11T22:08:28.346Z,53.55
2019-05-11T22:10:59.929Z,53.70
2019-05-11T22:13:29.144Z,40.90
2019-05-11T22:15:58.759Z,39.40
2019-05-11T22:18:31.198Z,39.90
2019-05-11T22:20:59.282Z,35.85
2019-05-11T22:23:29.112Z,32.05
2019-05-11T22:25:58.810Z,29.02
2019-05-11T22:28:28.635Z,27.13
2019-05-11T22:30:58.205Z,24.37
2019-05-11T22:33:28.455Z,24.72
2019-05-11T22:35:58.759Z,25.00
2019-05-11T22:38:30.300Z,24.10
2019-05-11T22:40:59.568Z,25.30
2019-05-11T22:43:29.109Z,23.83
2019-05-11T22:45:58.740Z,25.43
2019-05-11T22:48:28.225Z,24.57
2019-05-11T22:50:58.634Z,24.72
2019-05-11T22:53:43.353Z,22.48
2019-05-11T22:55:59.734Z,71.85
2019-05-11T22:58:29.274Z,32.10
2019-05-11T23:00:59.775Z,22.40
2019-05-11T23:03:29.376Z,21.17
2019-05-11T23:05:58.836Z,20.57
2019-05-11T23:08:28.306Z,21.42
2019-05-11T23:10:57.781Z,21.47
2019-05-11T23:13:27.880Z,23.12
2019-05-11T23:15:58.434Z,23.45
2019-05-11T23:18:28.640Z,21.65
2019-05-11T23:20:58.660Z,21.77
2019-05-11T23:23:28.710Z,21.62
2019-05-11T23:25:58.192Z,22.00
2019-05-11T23:28:28.794Z,21.87
2019-05-11T23:30:58.548Z,21.50
2019-05-11T23:33:28.096Z,21.80
2019-05-11T23:35:58.720Z,22.07
2019-05-11T23:38:28.364Z,21.87
2019-05-11T23:40:58.715Z,21.52
2019-05-11T23:43:30.035Z,21.97
2019-05-11T23:45:59.731Z,21.45
2019-05-11T23:48:29.181Z,20.90
2019-05-11T23:50:58.605Z,21.02
2019-05-11T23:53:28.380Z,19.07
2019-05-11T23:55:58.197Z,18.37
2019-05-11T23:58:28.327Z,18.67
